Time;durP1;ratioP1;P1;durP2;ratioP2;P2;SDS_P1;SDS_P2;PMS_P1;PMS_P2;Temp;Humidity;BMP_temperature;BMP_pressure;BME280_temperature;BME280_humidity;BME280_pressure;Samples;Min_cycle;Max_cycle;Signal;HPM_P1;HPM_P2
2023/06/03 00:00:13;;;;;;;1.95;0.75;;;16.10;99.90;;;;;;5118124;27;20028;-78
2023/06/03 00:02:40;;;;;;;2.58;1.27;;;16.10;99.90;;;;;;5118145;27;20091;-78
2023/06/03 00:05:06;;;;;;;0.10;0.10;;;16.00;99.90;;;;;;5135994;27;20530;-78
2023/06/03 00:07:32;;;;;;;5.18;0.52;;;16.00;99.90;;;;;;5136381;27;20022;-78
2023/06/03 00:09:58;;;;;;;0.10;0.10;;;15.90;99.90;;;;;;5136199;27;20429;-78
2023/06/03 00:12:24;;;;;;;0.20;0.20;;;15.80;99.90;;;;;;5136205;27;20043;-78
2023/06/03 00:14:50;;;;;;;0.10;0.10;;;15.90;99.90;;;;;;5135983;27;20031;-78
2023/06/03 00:17:15;;;;;;;0.20;0.20;;;15.90;99.90;;;;;;5117926;27;20016;-78
2023/06/03 00:19:42;;;;;;;0.22;0.22;;;15.80;99.90;;;;;;5135738;27;20035;-79
2023/06/03 00:22:08;;;;;;;2.45;0.80;;;15.70;99.90;;;;;;5135856;27;20035;-79
2023/06/03 00:24:34;;;;;;;0.30;0.30;;;15.80;99.90;;;;;;5136081;27;20038;-76
2023/06/03 00:27:00;;;;;;;0.63;0.63;;;15.80;99.90;;;;;;5117530;27;20102;-79
2023/06/03 00:29:26;;;;;;;1.65;0.63;;;15.90;99.90;;;;;;5135920;27;20608;-79
2023/06/03 00:31:52;;;;;;;0.10;0.10;;;15.70;99.90;;;;;;5117248;27;20055;-78
2023/06/03 00:34:18;;;;;;;0.10;0.10;;;15.80;99.90;;;;;;5131619;27;20034;-78
2023/06/03 00:36:44;;;;;;;2.67;1.38;;;15.60;99.90;;;;;;5125524;27;20475;-79
2023/06/03 00:39:11;;;;;;;0.10;0.10;;;15.80;99.90;;;;;;5136329;27;20033;-79
2023/06/03 00:41:37;;;;;;;0.63;0.63;;;15.70;99.90;;;;;;5135326;27;20076;-79
2023/06/03 00:44:03;;;;;;;0.30;0.30;;;15.80;99.90;;;;;;5135596;27;20035;-78
2023/06/03 00:46:34;;;;;;;0.10;0.10;;;15.90;99.90;;;;;;5117375;27;20031;-79
2023/06/03 00:49:01;;;;;;;0.10;0.10;;;15.90;99.90;;;;;;5117100;27;20398;-79
2023/06/03 00:51:29;;;;;;;0.70;0.70;;;15.90;99.90;;;;;;5135290;27;20027;-78
2023/06/03 00:53:55;;;;;;;0.10;0.10;;;15.80;99.90;;;;;;5117048;27;20031;-79
2023/06/03 00:56:22;;;;;;;0.20;0.20;;;15.70;99.90;;;;;;5116917;27;20031;-79
2023/06/03 00:58:49;;;;;;;0.10;0.10;;;15.70;99.90;;;;;;5135508;27;20467;-79
2023/06/03 01:01:15;;;;;;;0.20;0.20;;;15.60;99.90;;;;;;5116716;27;20490;-78
2023/06/03 01:03:42;;;;;;;0.10;0.10;;;15.70;99.90;;;;;;5134955;27;20015;-78
2023/06/03 01:06:26;;;;;;;0.90;0.90;;;15.60;99.90;;;;;;5116890;27;20791;-79
2023/06/03 01:09:07;;;;;;;1.35;0.55;;;15.50;99.90;;;;;;5111525;27;20023;-77
2023/06/03 01:11:35;;;;;;;0.10;0.10;;;15.40;99.90;;;;;;5116508;27;20064;-78
2023/06/03 01:14:20;;;;;;;0.35;0.35;;;15.50;99.90;;;;;;5135121;27;20081;-78
2023/06/03 01:16:49;;;;;;;0.03;0.03;;;15.50;99.90;;;;;;5115998;27;20019;-78
2023/06/03 01:19:38;;;;;;;0.30;0.30;;;15.60;99.90;;;;;;5135046;27;20046;-79
2023/06/03 01:22:06;;;;;;;0.43;0.43;;;15.60;99.90;;;;;;5134569;27;20550;-78
2023/06/03 01:24:34;;;;;;;0.20;0.20;;;15.60;99.90;;;;;;5134989;27;20023;-78
2023/06/03 01:27:00;;;;;;;0.28;0.28;;;15.50;99.90;;;;;;5134552;27;20050;-79
2023/06/03 01:29:27;;;;;;;0.30;0.30;;;15.40;99.90;;;;;;5099511;27;20034;-79
2023/06/03 01:31:56;;;;;;;0.20;0.20;;;15.50;99.90;;;;;;5115888;27;20063;-75
2023/06/03 01:34:22;;;;;;;0.38;0.38;;;15.40;99.90;;;;;;5130261;27;20054;-79
2023/06/03 01:36:48;;;;;;;0.00;0.00;;;15.20;99.90;;;;;;5106218;27;20023;-77
2023/06/03 01:39:15;;;;;;;0.10;0.10;;;15.20;99.90;;;;;;5115714;27;20027;-78
2023/06/03 01:41:43;;;;;;;0.22;0.22;;;15.20;99.90;;;;;;5116062;27;20475;-79
2023/06/03 01:44:09;;;;;;;0.10;0.10;;;15.30;99.90;;;;;;5115840;27;20019;-78
2023/06/03 01:46:36;;;;;;;0.38;0.38;;;15.40;99.90;;;;;;5115880;27;20083;-79
2023/06/03 01:49:06;;;;;;;0.10;0.10;;;15.30;99.90;;;;;;5116091;27;20038;-78
2023/06/03 01:51:31;;;;;;;0.10;0.10;;;15.30;99.90;;;;;;5134149;27;20027;-78
2023/06/03 01:53:57;;;;;;;0.10;0.10;;;15.30;99.90;;;;;;5134419;27;20034;-78
2023/06/03 01:56:23;;;;;;;0.10;0.10;;;15.20;99.90;;;;;;5115597;27;20150;-79
2023/06/03 01:58:49;;;;;;;13.18;6.40;;;15.20;99.90;;;;;;5109794;28;20032;-79
2023/06/03 02:01:15;;;;;;;0.15;0.15;;;15.10;99.90;;;;;;5093282;28;20105;-79
2023/06/03 02:03:40;;;;;;;0.10;0.10;;;15.20;99.90;;;;;;5116795;27;20475;-79
2023/06/03 02:06:08;;;;;;;0.50;0.47;;;15.30;99.90;;;;;;5124636;27;20030;-79
2023/06/03 02:08:36;;;;;;;0.73;0.65;;;15.10;99.90;;;;;;5105601;28;20081;-79
2023/06/03 02:11:02;;;;;;;0.15;0.15;;;14.90;99.90;;;;;;5111569;27;20436;-77
2023/06/03 02:13:29;;;;;;;0.10;0.10;;;15.00;99.90;;;;;;5098886;27;20433;-78
2023/06/03 02:15:55;;;;;;;0.10;0.10;;;15.10;99.90;;;;;;5133581;27;20030;-78
2023/06/03 02:18:20;;;;;;;1.63;0.98;;;15.00;99.90;;;;;;5080999;28;20031;-78
2023/06/03 02:20:46;;;;;;;0.25;0.25;;;15.00;99.90;;;;;;5107638;27;20071;-79
2023/06/03 02:23:12;;;;;;;0.10;0.10;;;15.00;99.90;;;;;;5133603;27;20031;-79
2023/06/03 02:25:38;;;;;;;0.10;0.10;;;15.00;99.90;;;;;;5115432;27;20032;-78
2023/06/03 02:28:04;;;;;;;0.10;0.10;;;15.10;99.90;;;;;;5133487;27;20483;-78
2023/06/03 02:30:30;;;;;;;0.10;0.10;;;15.10;99.90;;;;;;5133776;28;20030;-78
2023/06/03 02:32:56;;;;;;;0.17;0.17;;;15.20;99.90;;;;;;5133657;28;20027;-78
2023/06/03 02:35:23;;;;;;;0.20;0.20;;;15.30;99.90;;;;;;5100970;28;20030;-77
2023/06/03 02:37:50;;;;;;;0.10;0.10;;;15.20;99.90;;;;;;5115189;28;20034;-78
2023/06/03 02:40:16;;;;;;;0.10;0.10;;;15.30;99.90;;;;;;5115022;28;20030;-78
2023/06/03 02:42:42;;;;;;;0.10;0.10;;;15.20;99.90;;;;;;5133703;28;20027;-79
2023/06/03 02:45:09;;;;;;;0.10;0.10;;;15.20;99.90;;;;;;5114866;28;20027;-78
2023/06/03 02:47:35;;;;;;;0.10;0.10;;;15.20;99.90;;;;;;5115287;28;20498;-79
2023/06/03 02:50:01;;;;;;;0.10;0.10;;;15.30;99.90;;;;;;5115488;27;20024;-78
2023/06/03 02:52:29;;;;;;;0.03;0.03;;;15.40;99.90;;;;;;5118225;27;20383;-79
2023/06/03 02:54:54;;;;;;;0.10;0.10;;;15.30;99.90;;;;;;5119409;27;20035;-78
2023/06/03 02:57:22;;;;;;;0.10;0.10;;;15.10;99.90;;;;;;5101882;27;20015;-78
2023/06/03 02:59:48;;;;;;;0.10;0.10;;;15.20;99.90;;;;;;5102267;27;20054;-77
2023/06/03 03:02:16;;;;;;;0.10;0.10;;;15.10;99.90;;;;;;5119064;27;20111;-79
2023/06/03 03:04:42;;;;;;;0.10;0.10;;;15.20;99.90;;;;;;5119294;27;20077;-78
2023/06/03 03:07:08;;;;;;;0.75;0.75;;;15.10;99.90;;;;;;5101729;27;20027;-77
2023/06/03 03:09:34;;;;;;;0.10;0.10;;;15.00;99.90;;;;;;5105065;27;20026;-79
2023/06/03 03:12:02;;;;;;;0.73;0.73;;;14.90;99.90;;;;;;5118822;27;20115;-79
2023/06/03 03:14:28;;;;;;;0.10;0.10;;;14.90;99.90;;;;;;5118866;27;20024;-79
2023/06/03 03:16:54;;;;;;;0.22;0.22;;;14.60;99.90;;;;;;5118894;27;20023;-79
2023/06/03 03:19:21;;;;;;;0.30;0.30;;;14.60;99.90;;;;;;5118657;27;20115;-78
2023/06/03 03:21:47;;;;;;;1.17;0.50;;;14.60;99.90;;;;;;5102120;27;20039;-78
2023/06/03 03:24:22;;;;;;;0.10;0.10;;;14.60;99.90;;;;;;5118683;27;20364;-78
2023/06/03 03:26:48;;;;;;;0.65;0.65;;;14.70;99.90;;;;;;5118741;27;20072;-79
2023/06/03 03:29:14;;;;;;;0.10;0.10;;;14.70;99.90;;;;;;5118669;27;20037;-78
2023/06/03 03:31:40;;;;;;;0.00;0.00;;;14.60;99.90;;;;;;5118630;27;20023;-79
2023/06/03 03:34:07;;;;;;;0.30;0.30;;;14.60;99.90;;;;;;5118243;27;20395;-79
2023/06/03 03:36:36;;;;;;;0.10;0.10;;;14.70;99.90;;;;;;5118106;27;20019;-79
2023/06/03 03:39:06;;;;;;;0.98;0.47;;;14.70;99.90;;;;;;5118460;27;20011;-79
2023/06/03 03:41:48;;;;;;;;;;;14.60;99.90;;;;;;5118209;27;20039;-78
2023/06/03 03:44:14;;;;;;;0.20;0.20;;;14.60;99.90;;;;;;5118493;27;19922;-78
2023/06/03 03:46:54;;;;;;;0.10;0.10;;;14.80;99.90;;;;;;5118220;27;20068;-79
2023/06/03 03:49:27;;;;;;;0.17;0.17;;;14.70;99.90;;;;;;5118414;27;20072;-79
2023/06/03 03:51:55;;;;;;;0.93;0.88;;;14.80;99.90;;;;;;5118261;27;20399;-79
2023/06/03 03:54:24;;;;;;;1.15;1.10;;;14.70;99.90;;;;;;5118145;27;20011;-79
2023/06/03 03:56:55;;;;;;;0.40;0.40;;;14.80;99.90;;;;;;5117933;27;20478;-78
2023/06/03 03:59:25;;;;;;;0.87;0.87;;;14.50;99.90;;;;;;5118071;27;20027;-79
2023/06/03 04:01:52;;;;;;;0.10;0.10;;;14.60;99.90;;;;;;5117425;27;20038;-78
2023/06/03 04:04:43;;;;;;;0.20;0.20;;;14.60;99.90;;;;;;5136189;27;20148;-79
2023/06/03 04:07:14;;;;;;;2.65;1.58;;;14.40;99.90;;;;;;5100612;27;20115;-78
2023/06/03 04:09:42;;;;;;;0.30;0.30;;;14.60;99.90;;;;;;5122817;27;20028;-79
2023/06/03 04:12:29;;;;;;;0.30;0.30;;;14.90;99.90;;;;;;5136317;27;20027;-78
2023/06/03 04:14:56;;;;;;;0.13;0.13;;;14.90;99.90;;;;;;5117837;27;20115;-79
2023/06/03 04:17:25;;;;;;;0.10;0.10;;;14.80;99.90;;;;;;5117714;27;20104;-79
2023/06/03 04:19:52;;;;;;;0.10;0.10;;;14.80;99.90;;;;;;5117666;27;20420;-78
2023/06/03 04:22:23;;;;;;;0.47;0.47;;;15.00;99.90;;;;;;5117663;27;20031;-78
2023/06/03 04:24:57;;;;;;;0.15;0.15;;;15.00;99.90;;;;;;5117224;27;20030;-79
2023/06/03 04:27:25;;;;;;;0.20;0.20;;;14.90;99.90;;;;;;5117825;27;20114;-78
2023/06/03 04:29:52;;;;;;;0.20;0.20;;;14.80;99.90;;;;;;5117277;27;20030;-78
2023/06/03 04:32:18;;;;;;;0.68;0.68;;;15.00;99.90;;;;;;5117495;27;20045;-77
2023/06/03 04:34:54;;;;;;;0.10;0.10;;;15.00;99.90;;;;;;5117443;27;20491;-79
2023/06/03 04:37:22;;;;;;;2.33;2.00;;;15.10;99.90;;;;;;5136064;27;20031;-79
2023/06/03 04:39:49;;;;;;;0.10;0.10;;;15.10;99.90;;;;;;5116837;27;20023;-79
2023/06/03 04:42:15;;;;;;;0.63;0.63;;;14.90;99.90;;;;;;5135745;27;20039;-78
2023/06/03 04:44:42;;;;;;;0.15;0.15;;;15.00;99.90;;;;;;5117156;27;20035;-79
2023/06/03 04:47:12;;;;;;;0.40;0.40;;;15.20;99.90;;;;;;5117416;27;20027;-79
2023/06/03 04:49:39;;;;;;;2.63;1.38;;;15.20;99.90;;;;;;5136174;27;20026;-77
2023/06/03 04:52:09;;;;;;;2.28;1.65;;;15.00;99.90;;;;;;5117850;27;20031;-79
2023/06/03 04:54:38;;;;;;;;;;;15.10;99.90;;;;;;5117667;27;20413;-79
2023/06/03 04:57:05;;;;;;;0.10;0.10;;;15.00;99.90;;;;;;5116802;27;20323;-79
2023/06/03 04:59:31;;;;;;;1.20;0.40;;;14.90;99.90;;;;;;5117203;27;20023;-79
2023/06/03 05:01:57;;;;;;;0.73;0.73;;;15.20;99.90;;;;;;5116453;27;20027;-78
2023/06/03 05:04:29;;;;;;;0.10;0.10;;;15.20;99.90;;;;;;5135516;27;20023;-79
2023/06/03 05:06:56;;;;;;;0.30;0.30;;;15.30;99.90;;;;;;5116696;27;20080;-79
2023/06/03 05:09:22;;;;;;;4.18;0.80;;;15.10;99.90;;;;;;5102140;27;20028;-79
2023/06/03 05:11:51;;;;;;;11.00;0.70;;;15.30;99.90;;;;;;5116699;27;20079;-78
2023/06/03 05:14:17;;;;;;;0.93;0.85;;;15.40;99.90;;;;;;5115783;27;20114;-78
2023/06/03 05:16:44;;;;;;;0.20;0.20;;;15.60;99.90;;;;;;5116582;27;20027;-79
2023/06/03 05:19:10;;;;;;;1.23;0.77;;;15.40;99.90;;;;;;5116703;27;20071;-78
2023/06/03 05:21:37;;;;;;;0.20;0.20;;;15.30;99.90;;;;;;5116106;27;20033;-78
2023/06/03 05:24:04;;;;;;;6.13;1.55;;;15.30;99.90;;;;;;5116274;27;20167;-78
2023/06/03 05:26:30;;;;;;;0.68;0.68;;;15.20;99.90;;;;;;5134839;27;20102;-79
2023/06/03 05:28:55;;;;;;;4.38;0.47;;;15.30;99.90;;;;;;5135255;27;20107;-79
2023/06/03 05:31:24;;;;;;;2.80;2.13;;;15.30;99.90;;;;;;5116146;27;20034;-79
2023/06/03 05:33:49;;;;;;;0.63;0.63;;;15.30;99.90;;;;;;5116267;27;20024;-78
2023/06/03 05:36:20;;;;;;;0.17;0.17;;;15.30;99.90;;;;;;5116075;27;20030;-79
2023/06/03 05:38:46;;;;;;;4.30;0.45;;;15.30;99.90;;;;;;5116164;27;20020;-79
2023/06/03 05:41:13;;;;;;;0.40;0.40;;;15.40;99.90;;;;;;5115799;27;20084;-79
2023/06/03 05:43:39;;;;;;;0.73;0.73;;;15.60;99.90;;;;;;5116233;27;20027;-78
2023/06/03 05:46:05;;;;;;;1.48;1.35;;;15.80;99.90;;;;;;5116185;27;20041;-79
2023/06/03 05:48:31;;;;;;;0.50;0.47;;;15.70;99.90;;;;;;5116221;27;20022;-78
2023/06/03 05:50:57;;;;;;;0.13;0.13;;;15.70;99.90;;;;;;5134377;27;20027;-78
2023/06/03 05:53:27;;;;;;;0.50;0.50;;;16.00;99.90;;;;;;5115585;27;20072;-78
2023/06/03 05:55:55;;;;;;;0.85;0.50;;;16.30;99.90;;;;;;5115986;27;20122;-78
2023/06/03 05:58:22;;;;;;;0.38;0.38;;;16.30;99.90;;;;;;5115807;27;20019;-78
2023/06/03 06:00:48;;;;;;;0.80;0.80;;;16.20;99.90;;;;;;5115668;27;20118;-79
2023/06/03 06:03:15;;;;;;;0.55;0.55;;;16.20;99.90;;;;;;5115829;27;20023;-78
2023/06/03 06:05:41;;;;;;;0.20;0.20;;;16.10;99.90;;;;;;5098324;28;20019;-78
2023/06/03 06:08:07;;;;;;;1.65;0.52;;;16.20;99.90;;;;;;5098817;28;20030;-78
2023/06/03 06:10:34;;;;;;;0.90;0.65;;;16.60;99.90;;;;;;5109710;27;20073;-78
2023/06/03 06:12:59;;;;;;;0.35;0.35;;;16.70;99.90;;;;;;5133829;27;20038;-78
2023/06/03 06:15:29;;;;;;;0.10;0.10;;;16.70;99.90;;;;;;5115646;27;20019;-77
2023/06/03 06:17:56;;;;;;;0.10;0.10;;;16.90;99.90;;;;;;5114993;27;20076;-77
2023/06/03 06:20:23;;;;;;;1.55;1.05;;;17.10;99.90;;;;;;5100684;28;20041;-79
2023/06/03 06:22:49;;;;;;;1.90;0.35;;;17.30;99.90;;;;;;5095218;28;20027;-78
2023/06/03 06:25:16;;;;;;;1.00;0.98;;;17.20;99.90;;;;;;5099144;28;20019;-78
2023/06/03 06:27:42;;;;;;;0.95;0.73;;;16.90;99.90;;;;;;5107367;28;20080;-77
2023/06/03 06:30:14;;;;;;;0.57;0.57;;;17.00;99.90;;;;;;5102517;28;20387;-78
2023/06/03 06:32:49;;;;;;;1.73;0.65;;;17.00;99.90;;;;;;5099339;28;20023;-77
2023/06/03 06:35:17;;;;;;;1.17;0.82;;;17.30;99.90;;;;;;5094190;28;20023;-77
2023/06/03 06:37:43;;;;;;;1.00;0.40;;;17.40;99.90;;;;;;5112226;28;20028;-76
2023/06/03 06:40:17;;;;;;;2.17;0.80;;;17.40;99.90;;;;;;5103711;28;20024;-78
2023/06/03 06:42:45;;;;;;;0.20;0.20;;;17.40;99.90;;;;;;5105473;28;20081;-79
2023/06/03 06:45:30;;;;;;;0.10;0.10;;;17.40;99.90;;;;;;5083082;28;20052;-77
2023/06/03 06:48:10;;;;;;;0.10;0.10;;;17.70;99.90;;;;;;5097979;28;20110;-78
2023/06/03 06:50:55;;;;;;;0.55;0.55;;;17.90;99.90;;;;;;5105061;28;20030;-78
2023/06/03 06:53:29;;;;;;;0.10;0.10;;;18.00;99.90;;;;;;5101896;28;20050;-76
2023/06/03 06:56:08;;;;;;;0.10;0.10;;;18.40;99.90;;;;;;5081334;28;20072;-78
2023/06/03 06:58:52;;;;;;;0.20;0.20;;;18.30;99.90;;;;;;5095363;28;20024;-78
2023/06/03 07:01:18;;;;;;;0.40;0.40;;;18.40;99.90;;;;;;5107161;28;20046;-78
2023/06/03 07:03:53;;;;;;;0.15;0.15;;;18.60;99.90;;;;;;5101590;28;20065;-78
2023/06/03 07:06:19;;;;;;;0.17;0.17;;;18.70;99.90;;;;;;5099663;28;20024;-78
2023/06/03 07:08:48;;;;;;;0.68;0.68;;;18.60;99.90;;;;;;5096860;28;20016;-78
2023/06/03 07:11:16;;;;;;;1.30;1.23;;;18.40;99.90;;;;;;5095814;28;20047;-78
2023/06/03 07:13:50;;;;;;;0.25;0.25;;;18.30;99.90;;;;;;5110410;28;20038;-78
2023/06/03 07:16:16;;;;;;;0.10;0.10;;;18.70;99.90;;;;;;5113528;28;20472;-78
2023/06/03 07:18:42;;;;;;;6.70;5.68;;;18.90;99.90;;;;;;5096651;28;20016;-76
2023/06/03 07:21:08;;;;;;;10.98;0.45;;;19.10;99.90;;;;;;5094815;28;20027;-77
2023/06/03 07:23:34;;;;;;;0.30;0.30;;;19.10;99.90;;;;;;5093502;28;20027;-78
2023/06/03 07:26:02;;;;;;;0.47;0.47;;;19.00;99.60;;;;;;5103857;28;20206;-73
2023/06/03 07:28:34;;;;;;;6.50;1.85;;;19.20;99.90;;;;;;5098612;28;20047;-78
2023/06/03 07:31:10;;;;;;;0.80;0.60;;;19.40;99.80;;;;;;5096279;28;20028;-79
2023/06/03 07:33:55;;;;;;;0.20;0.10;;;19.60;99.20;;;;;;5093575;28;20065;-78
2023/06/03 07:36:28;;;;;;;0.08;0.08;;;19.90;97.70;;;;;;5092788;28;20043;-77
2023/06/03 07:39:04;;;;;;;0.85;0.38;;;19.90;96.90;;;;;;5103083;28;20032;-77
2023/06/03 07:41:43;;;;;;;0.00;0.00;;;19.80;97.00;;;;;;5091809;28;20055;-78
2023/06/03 07:44:22;;;;;;;0.10;0.10;;;20.00;97.00;;;;;;5094990;28;20034;-77
2023/06/03 07:46:57;;;;;;;0.00;0.00;;;20.20;95.30;;;;;;5114931;28;20414;-75
2023/06/03 07:49:24;;;;;;;0.10;0.10;;;20.40;96.20;;;;;;5114627;28;20034;-76
2023/06/03 07:51:51;;;;;;;2.55;0.50;;;20.60;95.50;;;;;;5100278;28;20120;-76
2023/06/03 07:54:18;;;;;;;0.05;0.05;;;20.70;95.20;;;;;;5115308;28;20019;-79
2023/06/03 07:56:45;;;;;;;1.35;0.57;;;20.90;95.00;;;;;;5115041;28;20034;-77
2023/06/03 07:59:12;;;;;;;0.15;0.15;;;20.80;94.50;;;;;;5114757;28;20076;-77
2023/06/03 08:01:39;;;;;;;0.00;0.00;;;20.90;93.70;;;;;;5114614;28;20147;-77
2023/06/03 08:04:18;;;;;;;0.10;0.10;;;21.00;93.50;;;;;;5114809;28;20098;-77
2023/06/03 08:06:45;;;;;;;0.20;0.20;;;20.80;93.80;;;;;;5112511;28;20036;-74
2023/06/03 08:09:22;;;;;;;0.30;0.30;;;20.80;93.90;;;;;;5118203;27;20378;-77
2023/06/03 08:11:47;;;;;;;0.10;0.10;;;20.70;92.80;;;;;;5133243;27;20031;-76
2023/06/03 08:14:13;;;;;;;1.45;0.70;;;20.90;91.60;;;;;;5121094;27;20547;-77
2023/06/03 08:16:39;;;;;;;0.20;0.20;;;21.10;91.90;;;;;;5119846;27;20364;-76
2023/06/03 08:19:07;;;;;;;0.10;0.10;;;21.10;92.20;;;;;;5122652;27;20023;-76
2023/06/03 08:21:33;;;;;;;0.60;0.50;;;21.20;91.70;;;;;;5131103;27;20065;-78
2023/06/03 08:24:00;;;;;;;1.45;1.27;;;21.30;90.30;;;;;;5133670;27;20045;-76
2023/06/03 08:26:26;;;;;;;0.00;0.00;;;21.20;90.90;;;;;;5119911;27;20471;-77
2023/06/03 08:28:52;;;;;;;0.10;0.10;;;21.20;91.00;;;;;;5120737;27;20034;-77
2023/06/03 08:31:18;;;;;;;0.30;0.20;;;21.10;91.10;;;;;;5116153;27;20060;-77
2023/06/03 08:33:44;;;;;;;1.33;0.63;;;21.30;90.50;;;;;;5131603;27;20043;-77
2023/06/03 08:36:11;;;;;;;0.43;0.20;;;21.10;89.30;;;;;;5134011;27;20110;-77
2023/06/03 08:38:39;;;;;;;0.47;0.38;;;21.30;90.00;;;;;;5119169;27;20123;-77
2023/06/03 08:41:06;;;;;;;0.00;0.00;;;21.40;89.80;;;;;;5120741;27;20048;-77
2023/06/03 08:43:48;;;;;;;0.00;0.00;;;21.60;90.60;;;;;;5114493;27;20072;-77
2023/06/03 08:46:27;;;;;;;0.00;0.00;;;21.90;89.50;;;;;;5113825;27;20122;-77
2023/06/03 08:49:08;;;;;;;0.10;0.10;;;22.10;90.40;;;;;;5111152;28;20069;-77
2023/06/03 08:51:38;;;;;;;0.00;0.00;;;22.30;87.60;;;;;;5120974;27;20088;-76
2023/06/03 08:54:13;;;;;;;0.60;0.17;;;22.20;87.80;;;;;;5127941;27;20070;-77
2023/06/03 08:56:44;;;;;;;0.10;0.10;;;22.40;87.80;;;;;;5113856;27;20081;-77
2023/06/03 08:59:15;;;;;;;0.00;0.00;;;22.40;86.00;;;;;;5112757;27;20045;-74
2023/06/03 09:01:44;;;;;;;0.07;0.07;;;22.40;85.10;;;;;;5107162;27;20062;-75
2023/06/03 09:04:12;;;;;;;2.10;0.65;;;22.30;85.10;;;;;;5125342;27;20038;-75
2023/06/03 09:06:43;;;;;;;0.43;0.30;;;22.30;84.60;;;;;;5120647;27;20026;-75
2023/06/03 09:09:10;;;;;;;1.90;1.23;;;22.30;84.30;;;;;;5113056;27;20106;-74
2023/06/03 09:11:37;;;;;;;0.00;0.00;;;22.40;83.90;;;;;;5131634;27;20023;-74
2023/06/03 09:14:04;;;;;;;6.13;0.95;;;22.40;83.00;;;;;;5119894;27;20047;-74
2023/06/03 09:16:32;;;;;;;0.20;0.20;;;22.60;83.20;;;;;;5119788;27;20027;-75
2023/06/03 09:18:59;;;;;;;0.20;0.20;;;22.80;81.80;;;;;;5121329;27;20024;-74
2023/06/03 09:21:26;;;;;;;0.20;0.20;;;22.60;81.30;;;;;;5129353;27;20027;-74
2023/06/03 09:23:52;;;;;;;0.10;0.10;;;22.40;82.00;;;;;;5132521;27;20555;-75
2023/06/03 09:26:18;;;;;;;0.10;0.10;;;22.80;81.20;;;;;;5119753;27;20038;-75
2023/06/03 09:28:45;;;;;;;1.38;0.45;;;22.80;80.60;;;;;;5119493;27;20056;-74
2023/06/03 09:31:11;;;;;;;0.10;0.10;;;22.70;80.60;;;;;;5113467;27;20110;-74
2023/06/03 09:33:37;;;;;;;0.00;0.00;;;22.90;81.30;;;;;;5123519;27;20027;-75
2023/06/03 09:36:13;;;;;;;0.20;0.20;;;23.20;81.20;;;;;;5132970;27;20387;-75
2023/06/03 09:38:46;;;;;;;0.20;0.20;;;23.30;79.00;;;;;;5105000;27;20023;-75
2023/06/03 09:41:18;;;;;;;0.00;0.00;;;23.30;78.80;;;;;;5119923;27;20438;-75
2023/06/03 09:43:55;;;;;;;;;;;23.40;79.80;;;;;;5128987;27;20122;-75
2023/06/03 09:46:22;;;;;;;1.90;1.27;;;23.80;78.10;;;;;;5130967;27;20279;-74
2023/06/03 09:48:47;;;;;;;0.10;0.10;;;23.10;77.20;;;;;;5119054;27;20016;-74
2023/06/03 09:51:13;;;;;;;1.67;0.80;;;22.90;77.50;;;;;;5117904;27;20038;-76
2023/06/03 09:53:39;;;;;;;0.08;0.08;;;23.00;79.40;;;;;;5125656;27;20015;-76
2023/06/03 09:56:26;;;;;;;0.30;0.30;;;23.30;78.50;;;;;;5114966;27;20027;-77
2023/06/03 09:59:22;;;;;;;2.05;0.30;;;23.60;77.10;;;;;;5083139;28;20126;-74
2023/06/03 10:01:50;;;;;;;0.10;0.10;;;24.10;77.50;;;;;;5117768;27;20050;-75
2023/06/03 10:04:23;;;;;;;0.10;0.10;;;24.30;75.80;;;;;;5124180;27;20420;-74
2023/06/03 10:07:09;;;;;;;0.00;0.00;;;24.60;74.90;;;;;;5119017;27;20474;-75
2023/06/03 10:09:36;;;;;;;0.22;0.10;;;24.60;74.40;;;;;;5090641;28;20042;-73
2023/06/03 10:12:02;;;;;;;1.05;0.70;;;24.50;73.80;;;;;;5125361;27;20051;-74
2023/06/03 10:14:29;;;;;;;0.00;0.00;;;24.30;72.70;;;;;;5113291;27;20501;-75
2023/06/03 10:17:21;;;;;;;0.10;0.10;;;24.10;73.80;;;;;;5112414;28;20534;-74
2023/06/03 10:19:48;;;;;;;0.75;0.70;;;23.80;73.20;;;;;;5102438;28;20027;-74
2023/06/03 10:22:18;;;;;;;0.00;0.00;;;23.80;73.30;;;;;;5096452;28;20031;-74
2023/06/03 10:24:46;;;;;;;0.30;0.30;;;24.20;74.10;;;;;;5111033;28;20028;-74
2023/06/03 10:27:14;;;;;;;0.08;0.08;;;24.20;71.20;;;;;;5102089;28;20517;-74
2023/06/03 10:29:40;;;;;;;0.10;0.10;;;24.10;71.70;;;;;;5112395;28;20476;-74
2023/06/03 10:32:07;;;;;;;0.38;0.30;;;24.30;73.10;;;;;;5112232;28;20024;-74
2023/06/03 10:34:37;;;;;;;0.32;0.32;;;24.40;71.40;;;;;;5097179;28;20340;-74
2023/06/03 10:37:05;;;;;;;0.15;0.15;;;24.40;70.70;;;;;;5112153;28;20060;-73
2023/06/03 10:39:32;;;;;;;0.20;0.20;;;24.60;70.30;;;;;;5101545;28;20038;-74
2023/06/03 10:42:05;;;;;;;0.00;0.00;;;24.60;71.00;;;;;;5111535;28;20043;-74
2023/06/03 10:44:32;;;;;;;0.00;0.00;;;25.10;71.20;;;;;;5098834;28;20380;-75
2023/06/03 10:47:21;;;;;;;0.75;0.25;;;25.20;70.00;;;;;;5099649;28;20118;-74
2023/06/03 10:49:51;;;;;;;0.38;0.38;;;25.40;69.40;;;;;;5102276;28;20102;-74
2023/06/03 10:52:55;;;;;;;0.15;0.13;;;25.10;69.00;;;;;;5098707;28;20111;-72
2023/06/03 10:55:34;;;;;;;0.10;0.10;;;25.20;68.10;;;;;;5076656;28;20472;-73
2023/06/03 10:58:08;;;;;;;0.00;0.00;;;25.20;69.60;;;;;;5111788;28;20107;-73
2023/06/03 11:00:58;;;;;;;0.35;0.10;;;25.60;68.10;;;;;;5112156;28;20103;-75
2023/06/03 11:03:26;;;;;;;0.10;0.10;;;25.60;68.00;;;;;;5111907;28;20499;-74
2023/06/03 11:05:53;;;;;;;0.05;0.05;;;25.60;67.10;;;;;;5111748;28;20084;-74
2023/06/03 11:08:59;;;;;;;1.00;0.85;;;25.70;66.80;;;;;;5111634;28;20060;-74
2023/06/03 11:11:52;;;;;;;0.10;0.10;;;26.30;65.60;;;;;;5101361;27;20042;-74
2023/06/03 11:14:24;;;;;;;0.17;0.17;;;26.10;65.60;;;;;;5121267;27;20114;-74
2023/06/03 11:16:56;;;;;;;0.10;0.10;;;26.20;65.00;;;;;;5121086;27;20028;-74
2023/06/03 11:19:44;;;;;;;0.28;0.15;;;26.20;65.10;;;;;;5114708;27;20606;-75
2023/06/03 11:22:37;;;;;;;0.50;0.30;;;25.70;63.70;;;;;;5132030;27;20047;-73
2023/06/03 11:25:03;;;;;;;7.03;0.95;;;25.50;64.30;;;;;;5102623;28;20031;-73
2023/06/03 11:27:30;;;;;;;7.43;0.20;;;26.00;64.50;;;;;;5115481;28;20395;-72
2023/06/03 11:29:58;;;;;;;0.08;0.08;;;26.00;64.70;;;;;;5115517;27;20069;-73
2023/06/03 11:32:35;;;;;;;0.40;0.40;;;26.10;63.70;;;;;;5115046;28;20042;-73
2023/06/03 11:35:04;;;;;;;4.40;1.48;;;26.10;63.90;;;;;;5115260;28;20365;-73
2023/06/03 11:37:48;;;;;;;0.43;0.20;;;26.30;65.10;;;;;;5115296;28;20024;-73
2023/06/03 11:40:19;;;;;;;0.40;0.40;;;26.50;64.30;;;;;;5094387;28;20032;-73
2023/06/03 11:42:47;;;;;;;0.10;0.10;;;26.40;62.70;;;;;;5098982;28;20071;-73
2023/06/03 11:45:26;;;;;;;0.85;0.73;;;26.50;63.10;;;;;;5115291;28;20265;-73
2023/06/03 11:48:05;;;;;;;0.10;0.10;;;26.20;63.50;;;;;;5090967;28;20066;-73
2023/06/03 11:50:54;;;;;;;0.20;0.20;;;26.70;63.50;;;;;;5102630;28;20032;-73
2023/06/03 11:53:37;;;;;;;1.45;0.43;;;27.10;63.00;;;;;;5121504;27;20466;-73
2023/06/03 11:56:08;;;;;;;0.03;0.03;;;27.00;62.30;;;;;;5120028;27;20471;-73
2023/06/03 11:58:39;;;;;;;0.03;0.03;;;26.80;62.60;;;;;;5120673;27;20458;-74
2023/06/03 12:01:19;;;;;;;0.25;0.25;;;27.30;62.70;;;;;;5130422;27;20039;-73
2023/06/03 12:03:58;;;;;;;0.80;0.40;;;27.10;61.80;;;;;;5121333;27;20069;-73
2023/06/03 12:06:24;;;;;;;0.32;0.17;;;27.00;60.70;;;;;;5105971;28;20076;-73
2023/06/03 12:08:49;;;;;;;0.30;0.20;;;27.10;60.80;;;;;;5116042;27;20098;-73
2023/06/03 12:11:27;;;;;;;1.30;0.75;;;27.60;61.10;;;;;;5113986;27;20066;-73
2023/06/03 12:13:53;;;;;;;0.00;0.00;;;27.10;60.40;;;;;;5130860;27;20035;-74
2023/06/03 12:16:33;;;;;;;0.55;0.55;;;27.00;62.50;;;;;;5128818;27;20022;-74
2023/06/03 12:19:04;;;;;;;0.60;0.43;;;27.30;61.00;;;;;;5102068;28;20028;-73
2023/06/03 12:21:32;;;;;;;0.40;0.40;;;27.50;58.90;;;;;;5113231;28;20042;-73
2023/06/03 12:23:58;;;;;;;0.30;0.15;;;27.40;59.60;;;;;;5114074;28;20353;-73
2023/06/03 12:26:27;;;;;;;0.28;0.28;;;28.30;58.90;;;;;;5114227;28;20112;-74
2023/06/03 12:29:08;;;;;;;0.00;0.00;;;28.60;59.60;;;;;;5114772;28;20023;-73
2023/06/03 12:31:35;;;;;;;0.77;0.50;;;29.10;59.20;;;;;;5119425;27;20112;-75
2023/06/03 12:34:02;;;;;;;0.00;0.00;;;28.40;58.90;;;;;;5114496;28;20024;-74
2023/06/03 12:36:47;;;;;;;0.40;0.40;;;28.20;58.30;;;;;;5114277;28;20020;-75
2023/06/03 12:39:13;;;;;;;0.10;0.10;;;28.10;58.80;;;;;;5114380;28;20486;-73
2023/06/03 12:41:53;;;;;;;0.10;0.08;;;28.70;58.20;;;;;;5113650;28;20027;-75
2023/06/03 12:44:19;;;;;;;0.35;0.35;;;28.80;56.30;;;;;;5114124;28;20172;-77
2023/06/03 12:47:02;;;;;;;4.13;0.75;;;28.70;56.70;;;;;;5114082;28;20080;-76
2023/06/03 12:49:28;;;;;;;0.20;0.20;;;28.40;57.90;;;;;;5114322;28;20027;-82
2023/06/03 12:52:09;;;;;;;0.30;0.30;;;28.80;56.90;;;;;;5113784;28;20149;-75
2023/06/03 12:54:34;;;;;;;2.75;0.20;;;28.50;55.20;;;;;;5113603;28;20088;-77
2023/06/03 12:57:01;;;;;;;0.43;0.32;;;28.60;54.40;;;;;;5113678;28;20114;-80
2023/06/03 12:59:27;;;;;;;1.27;0.60;;;28.60;54.20;;;;;;5113971;28;20028;-79
2023/06/03 13:01:53;;;;;;;0.00;0.00;;;28.20;54.90;;;;;;5113796;28;20042;-82